sensor_id;sensor_type;location;lat;lon;timestamp;P1;durP1;ratioP1;P2;durP2;ratioP2
42124;SDS011;27787;44.594;11.046;2022-11-04T00:00:20;101.22;;;40.67;;
42124;SDS011;27787;44.594;11.046;2022-11-04T00:03:06;98.13;;;41.90;;
42124;SDS011;27787;44.594;11.046;2022-11-04T00:05:50;91.30;;;41.38;;
42124;SDS011;27787;44.594;11.046;2022-11-04T00:08:34;93.53;;;39.75;;
42124;SDS011;27787;44.594;11.046;2022-11-04T00:11:19;103.25;;;42.03;;
42124;SDS011;27787;44.594;11.046;2022-11-04T00:14:22;91.22;;;40.42;;
42124;SDS011;27787;44.594;11.046;2022-11-04T00:17:10;90.55;;;40.67;;
42124;SDS011;27787;44.594;11.046;2022-11-04T00:20:07;87.03;;;39.22;;
42124;SDS011;27787;44.594;11.046;2022-11-04T00:23:10;89.10;;;39.35;;
42124;SDS011;27787;44.594;11.046;2022-11-04T00:26:13;90.65;;;40.67;;
42124;SDS011;27787;44.594;11.046;2022-11-04T00:29:15;85.30;;;39.00;;
42124;SDS011;27787;44.594;11.046;2022-11-04T00:32:00;86.07;;;37.60;;
42124;SDS011;27787;44.594;11.046;2022-11-04T00:35:03;87.32;;;38.53;;
42124;SDS011;27787;44.594;11.046;2022-11-04T00:37:47;81.60;;;37.72;;
42124;SDS011;27787;44.594;11.046;2022-11-04T00:40:31;88.95;;;38.33;;
42124;SDS011;27787;44.594;11.046;2022-11-04T00:43:15;85.43;;;37.90;;
42124;SDS011;27787;44.594;11.046;2022-11-04T00:45:58;77.63;;;35.42;;
42124;SDS011;27787;44.594;11.046;2022-11-04T00:48:42;75.75;;;34.83;;
42124;SDS011;27787;44.594;11.046;2022-11-04T00:51:26;81.72;;;36.53;;
42124;SDS011;27787;44.594;11.046;2022-11-04T00:54:11;78.45;;;34.13;;
42124;SDS011;27787;44.594;11.046;2022-11-04T00:56:55;78.78;;;34.60;;
42124;SDS011;27787;44.594;11.046;2022-11-04T00:59:38;73.03;;;33.95;;
42124;SDS011;27787;44.594;11.046;2022-11-04T01:02:24;75.63;;;32.55;;
42124;SDS011;27787;44.594;11.046;2022-11-04T01:05:08;74.97;;;32.63;;
42124;SDS011;27787;44.594;11.046;2022-11-04T01:07:52;61.92;;;30.95;;
42124;SDS011;27787;44.594;11.046;2022-11-04T01:10:36;66.13;;;30.60;;
42124;SDS011;27787;44.594;11.046;2022-11-04T01:13:27;68.38;;;31.65;;
42124;SDS011;27787;44.594;11.046;2022-11-04T01:16:11;70.68;;;31.85;;
42124;SDS011;27787;44.594;11.046;2022-11-04T01:18:56;63.78;;;30.38;;
42124;SDS011;27787;44.594;11.046;2022-11-04T01:21:41;64.32;;;30.10;;
42124;SDS011;27787;44.594;11.046;2022-11-04T01:24:24;73.82;;;32.40;;
42124;SDS011;27787;44.594;11.046;2022-11-04T01:27:09;67.40;;;32.70;;
42124;SDS011;27787;44.594;11.046;2022-11-04T01:29:53;66.25;;;31.63;;
42124;SDS011;27787;44.594;11.046;2022-11-04T01:32:37;71.60;;;31.98;;
42124;SDS011;27787;44.594;11.046;2022-11-04T01:35:21;73.10;;;30.65;;
42124;SDS011;27787;44.594;11.046;2022-11-04T01:38:05;74.22;;;31.23;;
42124;SDS011;27787;44.594;11.046;2022-11-04T01:40:49;71.28;;;31.35;;
42124;SDS011;27787;44.594;11.046;2022-11-04T01:43:53;73.75;;;31.95;;
42124;SDS011;27787;44.594;11.046;2022-11-04T01:46:38;65.55;;;31.67;;
42124;SDS011;27787;44.594;11.046;2022-11-04T01:49:32;72.00;;;32.05;;
42124;SDS011;27787;44.594;11.046;2022-11-04T01:52:27;70.72;;;32.08;;
42124;SDS011;27787;44.594;11.046;2022-11-04T01:55:18;78.43;;;34.72;;
42124;SDS011;27787;44.594;11.046;2022-11-04T01:58:07;73.22;;;33.88;;
42124;SDS011;27787;44.594;11.046;2022-11-04T02:00:53;71.55;;;33.10;;
42124;SDS011;27787;44.594;11.046;2022-11-04T02:03:38;82.05;;;36.28;;
42124;SDS011;27787;44.594;11.046;2022-11-04T02:06:28;80.65;;;35.10;;
42124;SDS011;27787;44.594;11.046;2022-11-04T02:09:12;84.55;;;36.28;;
42124;SDS011;27787;44.594;11.046;2022-11-04T02:11:57;82.45;;;34.88;;
42124;SDS011;27787;44.594;11.046;2022-11-04T02:15:01;86.35;;;34.88;;
42124;SDS011;27787;44.594;11.046;2022-11-04T02:20:36;84.38;;;35.17;;
42124;SDS011;27787;44.594;11.046;2022-11-04T02:24:00;82.57;;;33.95;;
42124;SDS011;27787;44.594;11.046;2022-11-04T02:27:17;89.72;;;35.22;;
42124;SDS011;27787;44.594;11.046;2022-11-04T02:45:20;89.47;;;35.65;;
42124;SDS011;27787;44.594;11.046;2022-11-04T02:51:17;77.88;;;32.00;;
42124;SDS011;27787;44.594;11.046;2022-11-04T02:54:06;78.72;;;34.33;;
42124;SDS011;27787;44.594;11.046;2022-11-04T02:56:55;79.63;;;33.53;;
42124;SDS011;27787;44.594;11.046;2022-11-04T03:05:38;85.10;;;30.15;;
42124;SDS011;27787;44.594;11.046;2022-11-04T03:08:36;83.28;;;32.50;;
42124;SDS011;27787;44.594;11.046;2022-11-04T03:11:23;90.22;;;32.08;;
42124;SDS011;27787;44.594;11.046;2022-11-04T03:14:12;67.85;;;32.72;;
42124;SDS011;27787;44.594;11.046;2022-11-04T03:17:06;92.33;;;33.27;;
42124;SDS011;27787;44.594;11.046;2022-11-04T03:19:59;84.65;;;33.22;;
42124;SDS011;27787;44.594;11.046;2022-11-04T03:22:46;75.47;;;31.50;;
42124;SDS011;27787;44.594;11.046;2022-11-04T03:25:38;81.65;;;29.95;;
42124;SDS011;27787;44.594;11.046;2022-11-04T03:28:29;67.03;;;28.45;;
42124;SDS011;27787;44.594;11.046;2022-11-04T03:31:20;62.42;;;29.35;;
42124;SDS011;27787;44.594;11.046;2022-11-04T03:34:10;62.75;;;29.40;;
42124;SDS011;27787;44.594;11.046;2022-11-04T03:36:54;57.90;;;27.48;;
42124;SDS011;27787;44.594;11.046;2022-11-04T03:39:39;64.80;;;29.30;;
42124;SDS011;27787;44.594;11.046;2022-11-04T03:42:23;67.50;;;29.90;;
42124;SDS011;27787;44.594;11.046;2022-11-04T03:45:09;59.92;;;29.50;;
42124;SDS011;27787;44.594;11.046;2022-11-04T03:47:55;54.70;;;27.67;;
42124;SDS011;27787;44.594;11.046;2022-11-04T03:50:41;65.57;;;26.67;;
42124;SDS011;27787;44.594;11.046;2022-11-04T03:53:27;49.78;;;26.58;;
42124;SDS011;27787;44.594;11.046;2022-11-04T03:56:20;57.15;;;28.58;;
42124;SDS011;27787;44.594;11.046;2022-11-04T04:11:30;72.68;;;29.52;;
42124;SDS011;27787;44.594;11.046;2022-11-04T04:14:26;79.03;;;32.50;;
42124;SDS011;27787;44.594;11.046;2022-11-04T04:20:30;70.25;;;31.50;;
42124;SDS011;27787;44.594;11.046;2022-11-04T04:23:22;65.68;;;30.23;;
42124;SDS011;27787;44.594;11.046;2022-11-04T04:26:36;73.78;;;31.05;;
42124;SDS011;27787;44.594;11.046;2022-11-04T04:29:42;69.05;;;28.70;;
42124;SDS011;27787;44.594;11.046;2022-11-04T04:32:29;71.65;;;30.38;;
42124;SDS011;27787;44.594;11.046;2022-11-04T04:35:20;88.53;;;32.53;;
42124;SDS011;27787;44.594;11.046;2022-11-04T04:38:28;89.07;;;31.45;;
42124;SDS011;27787;44.594;11.046;2022-11-04T04:41:38;96.45;;;33.88;;
42124;SDS011;27787;44.594;11.046;2022-11-04T04:44:40;107.80;;;34.85;;
42124;SDS011;27787;44.594;11.046;2022-11-04T04:47:46;122.63;;;37.55;;
42124;SDS011;27787;44.594;11.046;2022-11-04T04:50:30;118.38;;;38.28;;
42124;SDS011;27787;44.594;11.046;2022-11-04T04:53:19;119.10;;;38.22;;
42124;SDS011;27787;44.594;11.046;2022-11-04T04:56:03;111.55;;;38.53;;
42124;SDS011;27787;44.594;11.046;2022-11-04T04:58:47;122.65;;;40.70;;
42124;SDS011;27787;44.594;11.046;2022-11-04T05:01:31;114.75;;;40.67;;
42124;SDS011;27787;44.594;11.046;2022-11-04T05:04:16;85.40;;;33.88;;
42124;SDS011;27787;44.594;11.046;2022-11-04T05:07:00;107.20;;;35.67;;
42124;SDS011;27787;44.594;11.046;2022-11-04T05:09:44;110.15;;;38.28;;
42124;SDS011;27787;44.594;11.046;2022-11-04T05:12:28;124.68;;;42.03;;
42124;SDS011;27787;44.594;11.046;2022-11-04T05:15:33;127.07;;;42.00;;
42124;SDS011;27787;44.594;11.046;2022-11-04T05:18:17;125.03;;;41.63;;
42124;SDS011;27787;44.594;11.046;2022-11-04T05:21:06;133.77;;;42.00;;
42124;SDS011;27787;44.594;11.046;2022-11-04T05:23:52;107.78;;;38.33;;
42124;SDS011;27787;44.594;11.046;2022-11-04T05:26:35;126.05;;;42.38;;
42124;SDS011;27787;44.594;11.046;2022-11-04T05:29:19;128.30;;;43.33;;
42124;SDS011;27787;44.594;11.046;2022-11-04T05:32:04;114.97;;;38.00;;
42124;SDS011;27787;44.594;11.046;2022-11-04T05:34:48;122.38;;;42.33;;
42124;SDS011;27787;44.594;11.046;2022-11-04T05:37:32;101.85;;;35.05;;
42124;SDS011;27787;44.594;11.046;2022-11-04T05:40:16;111.10;;;35.85;;
42124;SDS011;27787;44.594;11.046;2022-11-04T05:43:00;94.53;;;33.00;;
42124;SDS011;27787;44.594;11.046;2022-11-04T05:45:44;110.22;;;35.85;;
42124;SDS011;27787;44.594;11.046;2022-11-04T05:48:29;105.57;;;35.53;;
42124;SDS011;27787;44.594;11.046;2022-11-04T05:51:14;95.55;;;29.63;;
42124;SDS011;27787;44.594;11.046;2022-11-04T05:54:00;90.18;;;28.88;;
42124;SDS011;27787;44.594;11.046;2022-11-04T05:56:44;88.05;;;31.88;;
42124;SDS011;27787;44.594;11.046;2022-11-04T05:59:28;90.75;;;32.25;;
42124;SDS011;27787;44.594;11.046;2022-11-04T06:02:12;86.22;;;31.15;;
42124;SDS011;27787;44.594;11.046;2022-11-04T06:04:57;87.60;;;31.48;;
42124;SDS011;27787;44.594;11.046;2022-11-04T06:07:41;80.15;;;29.95;;
42124;SDS011;27787;44.594;11.046;2022-11-04T06:10:25;79.05;;;30.33;;
42124;SDS011;27787;44.594;11.046;2022-11-04T06:13:10;79.47;;;30.25;;
42124;SDS011;27787;44.594;11.046;2022-11-04T06:15:54;75.18;;;29.60;;
42124;SDS011;27787;44.594;11.046;2022-11-04T06:18:38;84.07;;;30.58;;
42124;SDS011;27787;44.594;11.046;2022-11-04T06:21:29;78.95;;;28.88;;
42124;SDS011;27787;44.594;11.046;2022-11-04T06:24:14;77.30;;;28.92;;
42124;SDS011;27787;44.594;11.046;2022-11-04T06:26:58;71.40;;;27.33;;
42124;SDS011;27787;44.594;11.046;2022-11-04T06:29:42;72.57;;;26.92;;
42124;SDS011;27787;44.594;11.046;2022-11-04T06:32:26;70.85;;;26.83;;
42124;SDS011;27787;44.594;11.046;2022-11-04T06:35:11;64.53;;;25.20;;
42124;SDS011;27787;44.594;11.046;2022-11-04T06:37:55;48.20;;;18.98;;
42124;SDS011;27787;44.594;11.046;2022-11-04T06:40:40;11.80;;;3.80;;
42124;SDS011;27787;44.594;11.046;2022-11-04T06:43:24;4.57;;;1.58;;
42124;SDS011;27787;44.594;11.046;2022-11-04T06:49:12;1.35;;;0.70;;
42124;SDS011;27787;44.594;11.046;2022-11-04T06:51:58;2.40;;;0.60;;
42124;SDS011;27787;44.594;11.046;2022-11-04T06:54:43;4.15;;;0.88;;
42124;SDS011;27787;44.594;11.046;2022-11-04T06:57:28;0.82;;;0.40;;
42124;SDS011;27787;44.594;11.046;2022-11-04T07:00:12;2.13;;;0.40;;
42124;SDS011;27787;44.594;11.046;2022-11-04T07:02:56;1.33;;;0.50;;
42124;SDS011;27787;44.594;11.046;2022-11-04T07:05:40;0.63;;;0.32;;
42124;SDS011;27787;44.594;11.046;2022-11-04T07:08:24;0.93;;;0.30;;
42124;SDS011;27787;44.594;11.046;2022-11-04T07:11:08;3.40;;;0.63;;
42124;SDS011;27787;44.594;11.046;2022-11-04T07:13:52;1.23;;;0.20;;
42124;SDS011;27787;44.594;11.046;2022-11-04T07:16:36;0.47;;;0.32;;
42124;SDS011;27787;44.594;11.046;2022-11-04T07:19:21;0.73;;;0.47;;
42124;SDS011;27787;44.594;11.046;2022-11-04T07:22:05;3.72;;;0.30;;
42124;SDS011;27787;44.594;11.046;2022-11-04T07:24:51;1.95;;;0.30;;
42124;SDS011;27787;44.594;11.046;2022-11-04T07:27:35;1.42;;;0.22;;
42124;SDS011;27787;44.594;11.046;2022-11-04T07:30:19;4.28;;;0.40;;
42124;SDS011;27787;44.594;11.046;2022-11-04T07:33:03;0.22;;;0.10;;
42124;SDS011;27787;44.594;11.046;2022-11-04T07:35:47;1.23;;;0.35;;
42124;SDS011;27787;44.594;11.046;2022-11-04T07:38:31;0.47;;;0.10;;
42124;SDS011;27787;44.594;11.046;2022-11-04T07:41:16;3.08;;;0.30;;
42124;SDS011;27787;44.594;11.046;2022-11-04T07:44:00;1.43;;;0.50;;
42124;SDS011;27787;44.594;11.046;2022-11-04T07:46:48;1.15;;;0.20;;
42124;SDS011;27787;44.594;11.046;2022-11-04T07:49:32;1.00;;;0.30;;
42124;SDS011;27787;44.594;11.046;2022-11-04T07:52:16;0.63;;;0.40;;
42124;SDS011;27787;44.594;11.046;2022-11-04T07:55:00;0.47;;;0.22;;
42124;SDS011;27787;44.594;11.046;2022-11-04T07:57:45;0.93;;;0.40;;
42124;SDS011;27787;44.594;11.046;2022-11-04T08:00:30;1.15;;;0.50;;
42124;SDS011;27787;44.594;11.046;2022-11-04T08:03:14;1.17;;;0.55;;
42124;SDS011;27787;44.594;11.046;2022-11-04T08:05:59;2.97;;;1.08;;
42124;SDS011;27787;44.594;11.046;2022-11-04T08:08:45;1.20;;;0.40;;
42124;SDS011;27787;44.594;11.046;2022-11-04T08:11:30;4.65;;;0.57;;
42124;SDS011;27787;44.594;11.046;2022-11-04T08:14:15;3.13;;;0.80;;
42124;SDS011;27787;44.594;11.046;2022-11-04T08:16:59;2.20;;;0.90;;
42124;SDS011;27787;44.594;11.046;2022-11-04T08:19:43;1.45;;;0.70;;
42124;SDS011;27787;44.594;11.046;2022-11-04T08:22:28;2.40;;;0.40;;
42124;SDS011;27787;44.594;11.046;2022-11-04T08:25:12;5.78;;;0.50;;
42124;SDS011;27787;44.594;11.046;2022-11-04T08:27:56;0.47;;;0.20;;
42124;SDS011;27787;44.594;11.046;2022-11-04T08:30:40;1.50;;;0.40;;
42124;SDS011;27787;44.594;11.046;2022-11-04T08:33:24;1.02;;;0.40;;
42124;SDS011;27787;44.594;11.046;2022-11-04T08:36:12;3.00;;;0.80;;
42124;SDS011;27787;44.594;11.046;2022-11-04T08:39:07;1.35;;;0.43;;
42124;SDS011;27787;44.594;11.046;2022-11-04T08:41:52;1.13;;;0.30;;
42124;SDS011;27787;44.594;11.046;2022-11-04T08:44:37;1.33;;;0.38;;
42124;SDS011;27787;44.594;11.046;2022-11-04T08:47:22;0.20;;;0.20;;
42124;SDS011;27787;44.594;11.046;2022-11-04T08:50:07;0.55;;;0.30;;
42124;SDS011;27787;44.594;11.046;2022-11-04T08:52:52;0.73;;;0.22;;
42124;SDS011;27787;44.594;11.046;2022-11-04T08:55:36;4.88;;;0.40;;
42124;SDS011;27787;44.594;11.046;2022-11-04T08:58:21;3.30;;;1.17;;
42124;SDS011;27787;44.594;11.046;2022-11-04T09:01:07;1.50;;;0.40;;
42124;SDS011;27787;44.594;11.046;2022-11-04T09:03:51;0.90;;;0.45;;
42124;SDS011;27787;44.594;11.046;2022-11-04T09:06:36;0.52;;;0.40;;
42124;SDS011;27787;44.594;11.046;2022-11-04T09:09:23;0.88;;;0.30;;
42124;SDS011;27787;44.594;11.046;2022-11-04T09:12:08;2.50;;;0.20;;
42124;SDS011;27787;44.594;11.046;2022-11-04T09:14:53;0.20;;;0.20;;
42124;SDS011;27787;44.594;11.046;2022-11-04T09:17:37;0.38;;;0.30;;
42124;SDS011;27787;44.594;11.046;2022-11-04T09:20:21;0.22;;;0.20;;
42124;SDS011;27787;44.594;11.046;2022-11-04T09:23:06;0.40;;;0.20;;
42124;SDS011;27787;44.594;11.046;2022-11-04T09:25:50;0.45;;;0.10;;
42124;SDS011;27787;44.594;11.046;2022-11-04T09:28:34;1.08;;;0.20;;
42124;SDS011;27787;44.594;11.046;2022-11-04T09:31:19;0.10;;;0.10;;
42124;SDS011;27787;44.594;11.046;2022-11-04T09:34:04;0.30;;;0.30;;
42124;SDS011;27787;44.594;11.046;2022-11-04T09:36:48;0.10;;;0.05;;
42124;SDS011;27787;44.594;11.046;2022-11-04T09:39:32;0.93;;;0.13;;
42124;SDS011;27787;44.594;11.046;2022-11-04T09:42:20;0.43;;;0.28;;
42124;SDS011;27787;44.594;11.046;2022-11-04T09:45:17;0.17;;;0.13;;
42124;SDS011;27787;44.594;11.046;2022-11-04T09:48:07;0.35;;;0.22;;
42124;SDS011;27787;44.594;11.046;2022-11-04T09:51:09;0.20;;;0.10;;
42124;SDS011;27787;44.594;11.046;2022-11-04T09:53:57;0.13;;;0.13;;
42124;SDS011;27787;44.594;11.046;2022-11-04T09:56:47;0.40;;;0.30;;
42124;SDS011;27787;44.594;11.046;2022-11-04T09:59:34;0.40;;;0.28;;
42124;SDS011;27787;44.594;11.046;2022-11-04T10:08:50;0.50;;;0.30;;
42124;SDS011;27787;44.594;11.046;2022-11-04T10:14:49;0.10;;;0.10;;
42124;SDS011;27787;44.594;11.046;2022-11-04T10:18:03;1.08;;;0.93;;
42124;SDS011;27787;44.594;11.046;2022-11-04T10:21:04;1.33;;;0.68;;
42124;SDS011;27787;44.594;11.046;2022-11-04T10:24:06;0.32;;;0.15;;
42124;SDS011;27787;44.594;11.046;2022-11-04T10:29:53;2.20;;;0.28;;
42124;SDS011;27787;44.594;11.046;2022-11-04T10:35:58;0.30;;;0.20;;
42124;SDS011;27787;44.594;11.046;2022-11-04T10:41:34;1.00;;;0.45;;
42124;SDS011;27787;44.594;11.046;2022-11-04T10:44:22;0.10;;;0.10;;
42124;SDS011;27787;44.594;11.046;2022-11-04T10:52:47;0.28;;;0.10;;
42124;SDS011;27787;44.594;11.046;2022-11-04T10:55:40;0.10;;;0.10;;
42124;SDS011;27787;44.594;11.046;2022-11-04T10:58:30;0.75;;;0.38;;
42124;SDS011;27787;44.594;11.046;2022-11-04T11:01:22;6.55;;;3.15;;
42124;SDS011;27787;44.594;11.046;2022-11-04T11:04:11;0.63;;;0.30;;
42124;SDS011;27787;44.594;11.046;2022-11-04T11:07:08;0.10;;;0.10;;
42124;SDS011;27787;44.594;11.046;2022-11-04T11:09:54;0.63;;;0.50;;
42124;SDS011;27787;44.594;11.046;2022-11-04T11:12:49;0.75;;;0.45;;
42124;SDS011;27787;44.594;11.046;2022-11-04T11:16:03;0.10;;;0.10;;
42124;SDS011;27787;44.594;11.046;2022-11-04T11:19:22;0.80;;;0.30;;
42124;SDS011;27787;44.594;11.046;2022-11-04T11:22:16;0.08;;;0.03;;
42124;SDS011;27787;44.594;11.046;2022-11-04T11:28:10;0.52;;;0.20;;
42124;SDS011;27787;44.594;11.046;2022-11-04T11:31:20;0.32;;;0.17;;
42124;SDS011;27787;44.594;11.046;2022-11-04T11:34:26;1.00;;;0.65;;
42124;SDS011;27787;44.594;11.046;2022-11-04T11:37:18;2.17;;;0.30;;
42124;SDS011;27787;44.594;11.046;2022-11-04T11:40:12;1.10;;;0.20;;
42124;SDS011;27787;44.594;11.046;2022-11-04T11:43:27;0.35;;;0.30;;
42124;SDS011;27787;44.594;11.046;2022-11-04T11:46:19;1.08;;;0.20;;
42124;SDS011;27787;44.594;11.046;2022-11-04T11:49:11;0.50;;;0.10;;
42124;SDS011;27787;44.594;11.046;2022-11-04T12:00:59;0.57;;;0.40;;
42124;SDS011;27787;44.594;11.046;2022-11-04T12:03:49;0.73;;;0.50;;
42124;SDS011;27787;44.594;11.046;2022-11-04T12:15:17;0.32;;;0.20;;
42124;SDS011;27787;44.594;11.046;2022-11-04T12:25:09;0.68;;;0.30;;
42124;SDS011;27787;44.594;11.046;2022-11-04T12:38:49;0.30;;;0.30;;
42124;SDS011;27787;44.594;11.046;2022-11-04T12:48:06;0.50;;;0.30;;
42124;SDS011;27787;44.594;11.046;2022-11-04T12:50:57;2.53;;;0.20;;
42124;SDS011;27787;44.594;11.046;2022-11-04T12:56:57;1.95;;;0.10;;
42124;SDS011;27787;44.594;11.046;2022-11-04T13:00:16;0.30;;;0.20;;
42124;SDS011;27787;44.594;11.046;2022-11-04T13:03:11;1.27;;;0.38;;
42124;SDS011;27787;44.594;11.046;2022-11-04T13:06:03;2.78;;;0.30;;
42124;SDS011;27787;44.594;11.046;2022-11-04T13:09:02;0.57;;;0.40;;
42124;SDS011;27787;44.594;11.046;2022-11-04T13:11:53;0.47;;;0.25;;
42124;SDS011;27787;44.594;11.046;2022-11-04T13:17:43;0.90;;;0.13;;
42124;SDS011;27787;44.594;11.046;2022-11-04T13:20:38;0.30;;;0.10;;
42124;SDS011;27787;44.594;11.046;2022-11-04T13:26:23;0.40;;;0.40;;
42124;SDS011;27787;44.594;11.046;2022-11-04T13:29:13;0.30;;;0.30;;
42124;SDS011;27787;44.594;11.046;2022-11-04T13:32:06;0.50;;;0.20;;
42124;SDS011;27787;44.594;11.046;2022-11-04T13:35:04;0.40;;;0.22;;
42124;SDS011;27787;44.594;11.046;2022-11-04T13:38:02;0.68;;;0.25;;
42124;SDS011;27787;44.594;11.046;2022-11-04T13:43:46;0.77;;;0.22;;
42124;SDS011;27787;44.594;11.046;2022-11-04T13:46:35;0.40;;;0.20;;
42124;SDS011;27787;44.594;11.046;2022-11-04T13:49:20;1.02;;;0.20;;
42124;SDS011;27787;44.594;11.046;2022-11-04T13:52:13;11.85;;;1.05;;
42124;SDS011;27787;44.594;11.046;2022-11-04T13:54:58;0.52;;;0.40;;
42124;SDS011;27787;44.594;11.046;2022-11-04T13:57:56;0.30;;;0.20;;
42124;SDS011;27787;44.594;11.046;2022-11-04T14:00:46;0.03;;;0.03;;
42124;SDS011;27787;44.594;11.046;2022-11-04T14:06:50;0.10;;;0.10;;
42124;SDS011;27787;44.594;11.046;2022-11-04T14:12:27;0.30;;;0.13;;
42124;SDS011;27787;44.594;11.046;2022-11-04T14:15:14;0.95;;;0.30;;
42124;SDS011;27787;44.594;11.046;2022-11-04T14:17:59;2.47;;;0.30;;
42124;SDS011;27787;44.594;11.046;2022-11-04T14:20:59;1.58;;;0.50;;
42124;SDS011;27787;44.594;11.046;2022-11-04T14:23:46;1.48;;;0.47;;
42124;SDS011;27787;44.594;11.046;2022-11-04T14:26:40;0.25;;;0.10;;
42124;SDS011;27787;44.594;11.046;2022-11-04T14:29:27;4.60;;;1.38;;
42124;SDS011;27787;44.594;11.046;2022-11-04T14:32:11;1.20;;;0.50;;
42124;SDS011;27787;44.594;11.046;2022-11-04T14:34:56;13.15;;;4.57;;
42124;SDS011;27787;44.594;11.046;2022-11-04T14:37:49;16.83;;;5.80;;
42124;SDS011;27787;44.594;11.046;2022-11-04T14:40:49;1.55;;;0.98;;
42124;SDS011;27787;44.594;11.046;2022-11-04T14:43:54;0.90;;;0.30;;
42124;SDS011;27787;44.594;11.046;2022-11-04T14:46:42;0.65;;;0.40;;
42124;SDS011;27787;44.594;11.046;2022-11-04T14:58:23;2.70;;;1.33;;
42124;SDS011;27787;44.594;11.046;2022-11-04T15:01:11;0.50;;;0.32;;
42124;SDS011;27787;44.594;11.046;2022-11-04T15:04:03;1.42;;;0.40;;
42124;SDS011;27787;44.594;11.046;2022-11-04T15:06:56;2.08;;;0.38;;
42124;SDS011;27787;44.594;11.046;2022-11-04T15:09:46;0.80;;;0.30;;
42124;SDS011;27787;44.594;11.046;2022-11-04T15:12:31;0.75;;;0.40;;
42124;SDS011;27787;44.594;11.046;2022-11-04T15:15:35;0.77;;;0.38;;
42124;SDS011;27787;44.594;11.046;2022-11-04T15:18:25;1.58;;;0.40;;
42124;SDS011;27787;44.594;11.046;2022-11-04T15:21:12;0.22;;;0.20;;
42124;SDS011;27787;44.594;11.046;2022-11-04T15:23:56;0.80;;;0.30;;
42124;SDS011;27787;44.594;11.046;2022-11-04T15:26:40;1.90;;;0.50;;
42124;SDS011;27787;44.594;11.046;2022-11-04T15:29:25;3.33;;;0.50;;
42124;SDS011;27787;44.594;11.046;2022-11-04T15:32:14;0.82;;;0.47;;
42124;SDS011;27787;44.594;11.046;2022-11-04T15:35:00;0.80;;;0.50;;
42124;SDS011;27787;44.594;11.046;2022-11-04T15:37:44;1.05;;;0.63;;
42124;SDS011;27787;44.594;11.046;2022-11-04T15:40:37;1.73;;;0.65;;
42124;SDS011;27787;44.594;11.046;2022-11-04T15:43:22;0.93;;;0.52;;
42124;SDS011;27787;44.594;11.046;2022-11-04T15:46:13;0.90;;;0.50;;
42124;SDS011;27787;44.594;11.046;2022-11-04T15:49:04;1.80;;;0.90;;
42124;SDS011;27787;44.594;11.046;2022-11-04T15:51:49;1.67;;;0.75;;
42124;SDS011;27787;44.594;11.046;2022-11-04T15:54:39;2.25;;;0.90;;
42124;SDS011;27787;44.594;11.046;2022-11-04T15:57:27;2.17;;;0.73;;
42124;SDS011;27787;44.594;11.046;2022-11-04T16:03:00;1.48;;;0.70;;
42124;SDS011;27787;44.594;11.046;2022-11-04T16:05:58;1.75;;;0.85;;
42124;SDS011;27787;44.594;11.046;2022-11-04T16:08:58;2.60;;;0.70;;
42124;SDS011;27787;44.594;11.046;2022-11-04T16:14:56;0.50;;;0.50;;
42124;SDS011;27787;44.594;11.046;2022-11-04T16:17:42;2.58;;;0.60;;
42124;SDS011;27787;44.594;11.046;2022-11-04T16:20:27;1.58;;;0.50;;
42124;SDS011;27787;44.594;11.046;2022-11-04T16:23:17;0.98;;;0.50;;
42124;SDS011;27787;44.594;11.046;2022-11-04T16:26:05;1.80;;;0.60;;
42124;SDS011;27787;44.594;11.046;2022-11-04T16:28:54;0.50;;;0.30;;
42124;SDS011;27787;44.594;11.046;2022-11-04T16:31:39;0.85;;;0.45;;
42124;SDS011;27787;44.594;11.046;2022-11-04T16:34:24;0.80;;;0.40;;
42124;SDS011;27787;44.594;11.046;2022-11-04T16:37:08;1.45;;;0.70;;
42124;SDS011;27787;44.594;11.046;2022-11-04T16:39:52;1.45;;;0.75;;
42124;SDS011;27787;44.594;11.046;2022-11-04T16:42:37;1.88;;;0.63;;
42124;SDS011;27787;44.594;11.046;2022-11-04T16:45:25;1.75;;;0.50;;
42124;SDS011;27787;44.594;11.046;2022-11-04T16:48:14;1.50;;;0.30;;
42124;SDS011;27787;44.594;11.046;2022-11-04T16:50:59;0.85;;;0.40;;
42124;SDS011;27787;44.594;11.046;2022-11-04T16:53:46;1.42;;;0.80;;
42124;SDS011;27787;44.594;11.046;2022-11-04T16:56:31;0.80;;;0.57;;
42124;SDS011;27787;44.594;11.046;2022-11-04T16:59:16;1.17;;;0.52;;
42124;SDS011;27787;44.594;11.046;2022-11-04T17:02:00;1.67;;;0.82;;
42124;SDS011;27787;44.594;11.046;2022-11-04T17:05:03;3.58;;;1.65;;
42124;SDS011;27787;44.594;11.046;2022-11-04T17:07:49;12.20;;;5.57;;
42124;SDS011;27787;44.594;11.046;2022-11-04T17:10:33;7.45;;;4.70;;
42124;SDS011;27787;44.594;11.046;2022-11-04T17:13:18;5.17;;;2.30;;
42124;SDS011;27787;44.594;11.046;2022-11-04T17:16:03;4.13;;;2.17;;
42124;SDS011;27787;44.594;11.046;2022-11-04T17:18:48;3.85;;;1.65;;
42124;SDS011;27787;44.594;11.046;2022-11-04T17:21:32;2.42;;;1.20;;
42124;SDS011;27787;44.594;11.046;2022-11-04T17:24:17;3.67;;;1.63;;
42124;SDS011;27787;44.594;11.046;2022-11-04T17:27:02;2.63;;;1.58;;
42124;SDS011;27787;44.594;11.046;2022-11-04T17:29:46;3.33;;;1.75;;
42124;SDS011;27787;44.594;11.046;2022-11-04T17:32:29;3.80;;;1.50;;
42124;SDS011;27787;44.594;11.046;2022-11-04T17:35:14;3.03;;;1.45;;
42124;SDS011;27787;44.594;11.046;2022-11-04T17:37:59;3.25;;;1.40;;
42124;SDS011;27787;44.594;11.046;2022-11-04T17:40:43;1.83;;;1.13;;
42124;SDS011;27787;44.594;11.046;2022-11-04T17:43:46;4.35;;;1.17;;
42124;SDS011;27787;44.594;11.046;2022-11-04T17:46:43;7.45;;;1.50;;
42124;SDS011;27787;44.594;11.046;2022-11-04T17:49:33;3.15;;;1.52;;
42124;SDS011;27787;44.594;11.046;2022-11-04T17:52:19;3.03;;;1.98;;
42124;SDS011;27787;44.594;11.046;2022-11-04T17:55:04;3.75;;;1.95;;
42124;SDS011;27787;44.594;11.046;2022-11-04T17:57:48;2.58;;;1.40;;
42124;SDS011;27787;44.594;11.046;2022-11-04T18:00:32;2.58;;;1.52;;
42124;SDS011;27787;44.594;11.046;2022-11-04T18:03:17;6.15;;;1.83;;
42124;SDS011;27787;44.594;11.046;2022-11-04T18:06:01;3.95;;;1.42;;
42124;SDS011;27787;44.594;11.046;2022-11-04T18:08:50;4.00;;;1.83;;
42124;SDS011;27787;44.594;11.046;2022-11-04T18:11:35;6.35;;;1.92;;
42124;SDS011;27787;44.594;11.046;2022-11-04T18:14:38;5.65;;;1.92;;
42124;SDS011;27787;44.594;11.046;2022-11-04T18:17:23;3.95;;;1.98;;
42124;SDS011;27787;44.594;11.046;2022-11-04T18:20:08;5.40;;;2.17;;
42124;SDS011;27787;44.594;11.046;2022-11-04T18:22:54;10.95;;;2.70;;
42124;SDS011;27787;44.594;11.046;2022-11-04T18:25:38;7.45;;;2.58;;
42124;SDS011;27787;44.594;11.046;2022-11-04T18:28:23;8.07;;;2.75;;
42124;SDS011;27787;44.594;11.046;2022-11-04T18:31:08;7.80;;;2.30;;
42124;SDS011;27787;44.594;11.046;2022-11-04T18:33:54;7.72;;;2.80;;
42124;SDS011;27787;44.594;11.046;2022-11-04T18:36:41;10.45;;;2.72;;
42124;SDS011;27787;44.594;11.046;2022-11-04T18:39:25;6.68;;;2.63;;
42124;SDS011;27787;44.594;11.046;2022-11-04T18:42:09;6.13;;;2.90;;
42124;SDS011;27787;44.594;11.046;2022-11-04T18:44:54;7.00;;;3.20;;
42124;SDS011;27787;44.594;11.046;2022-11-04T18:47:38;7.22;;;2.90;;
42124;SDS011;27787;44.594;11.046;2022-11-04T18:50:22;6.97;;;2.92;;
42124;SDS011;27787;44.594;11.046;2022-11-04T18:53:07;7.95;;;3.28;;
42124;SDS011;27787;44.594;11.046;2022-11-04T18:55:51;7.20;;;2.80;;